Luke Air Force Base, AZ

11:49 PM MST on August 30, 2015 (GMT -0700)
Luke Air Force Base | | Change Station
CLOSE
Current Station
Airport
Location: Glendale Luke AFB,
Elevation: 1089 ft
Nearby Weather Stations

Elev 1089 ft 33.53 °N, 112.38 °W | Updated 51 minutes ago

Clear
Clear
90 °F
Feels Like 92 °F
N
8
Wind Variable Wind from WSW

Today
High -- | Low -- °F
--% Chance of Precip.
Yesterday
High -- | Low -- °F
Precip. -- in
6:02 AM 6:57 PM
Waning Gibbous, 97% visible
Pressure 29.73 in
Visibility 10.0 miles
Clouds Clear
Heat Index 92 °F
Dew Point 65 °F
Humidity 43%
Rainfall 0.00 in
Snow Depth Not available.
UV 0 out of 12
Pollen 5.10 out of 12
Air Quality Not available.
Flu Activity Not available.
METAR KLUF 310558Z AUTO 24007KT 10SM CLR 32/18 A2977 RMK AO2 SLP065 60000 T03240184 10410 20324 50009 $
Pressure 29.73 in
Visibility 10.0 miles
Clouds Clear
Heat Index 92 °F
Dew Point 65 °F
Humidity 43%
Rainfall 0.00 in
Snow Depth Not available.
UV 0 out of 12
Pollen 5.10 out of 12
Air Quality Not available.
Flu Activity Not available.
METAR KLUF 310558Z AUTO 24007KT 10SM CLR 32/18 A2977 RMK AO2 SLP065 60000 T03240184 10410 20324 50009 $

10-Day Weather Forecast

×

Almanac

Astronomy

Aug. 30, 2015 Rise Set
Actual Time
Civil Twilight
Nautical Twilight
Astronomical Twilight
Moon
Length of Visible Light
Length of Day
Tomorrow will be .
, % of the Moon is Illuminated

Today's Extremes

State Highs State Lows

Community

WunderPhotos

Upload Photos

1,851,217 photos uploaded!

WunderBlogs® & News

Nearby

Air Quality

  Air Quality AQ Index Pollutant
Not available.

Snow Depth

Station Depth Elevation

Earthquake Activity

City Distance Mag. Time & Date
Minimum magnitude displayed is 2.5.

Coastal Water Temperatures

Place Temperature

Stations

Nearby Weather Stations

Station Location Temp. Windchill Dew Point Humidity Wind Precip. Elev Updated Type